RJDM(METAR)
07/27 18:00
METAR RJDM 270900Z 35010KT 9999 FEW035 33/21 Q0999 RMK 1CU035 A2951
MAX WIND 18KT=
戻る
トップページへ戻る
IMOC Co,.Ltd.